Plymouth, MN (55441)

10:41 AM CST on December 04, 2016 (GMT -0600)
Holberg Heights, New Hope, MN. | | Change Station

Elev 974 ft 45.02 °N, 93.40 °W | Updated 1 second ago

Overcast
Overcast
32.9 °F
Feels Like 33 °F
N
1.0
Wind Variable Wind from SW
Gusts 2.0 mph

Today
High -- | Low -- °F
--% Chance of Precip.
Yesterday
High -- | Low -- °F
Precip. -- in
Pressure 29.86 in
Visibility 1.5 miles
Clouds Overcast 400 ft
Windchill 33 °F
Dew Point 32 °F
Humidity 96%
Rainfall 0.00 in
Snow Depth Not available.
7:35 AM 4:32 PM
Waxing Crescent, 23% visible
SPECI KMIC 041609Z 17008KT 1 1/2SM BR OVC004 01/M01 A2986 RMK AO2 T00061011
Pressure 29.86 in
Visibility 1.5 miles
Clouds Overcast 400 ft
Windchill 33 °F
Dew Point 32 °F
Humidity 96%
Rainfall 0.00 in
Snow Depth Not available.
7:35 AM 4:32 PM
Waxing Crescent, 23% visible
SPECI KMIC 041609Z 17008KT 1 1/2SM BR OVC004 01/M01 A2986 RMK AO2 T00061011

10-Day Weather Forecast

Almanac

Astronomy

Dec. 04, 2016 Rise Set
Actual Time
Civil Twilight
Nautical Twilight
Astronomical Twilight
Moon
Length of Visible Light
Length of Day
Tomorrow will be .
, % of the Moon is Illuminated

Today's Extremes

State Highs State Lows

Community

WunderPhotos

Upload Photos

1,955,630 photos uploaded!

WunderBlog® & News

Nearby

Air Quality

  Air Quality AQ Index Pollutant
Not available.

Snow Depth

Station Depth Elevation

Earthquake Activity

City Distance Mag. Time & Date
Minimum magnitude displayed is 2.5.

Coastal Water Temperatures

Place Temperature

Stations

Nearby Weather Stations

Station Location Temp. Windchill Dew Point Humidity Wind Precip. Elev Updated Type
                   

Watches & Warnings

There are currently no watches in effect.